Time;durP1;ratioP1;P1;durP2;ratioP2;P2;SDS_P1;SDS_P2;PMS_P1;PMS_P2;Temp;Humidity;BMP_temperature;BMP_pressure;BME280_temperature;BME280_humidity;BME280_pressure;Samples;Min_cycle;Max_cycle;Signal;HPM_P1;HPM_P2
2022/07/01 00:02:21;;;;;;;12.75;6.47;;;;;;;23.28;68.25;94710.16;5107149;28;20202;-84
2022/07/01 00:04:51;;;;;;;16.90;6.70;;;;;;;23.32;68.20;94711.13;5107090;28;20234;-84
2022/07/01 00:07:20;;;;;;;14.02;7.40;;;;;;;23.35;67.88;94712.44;5106885;28;20249;-84
2022/07/01 00:09:53;;;;;;;13.75;7.47;;;;;;;23.38;68.33;94712.63;5104296;28;20206;-83
2022/07/01 00:12:23;;;;;;;14.18;7.93;;;;;;;23.35;67.24;94715.84;5093287;28;20192;-83
2022/07/01 00:14:52;;;;;;;16.52;8.35;;;;;;;23.12;68.38;94709.66;5092020;28;20196;-82
2022/07/01 00:17:26;;;;;;;16.50;8.93;;;;;;;22.96;69.32;94716.34;5094811;28;20192;-83
2022/07/01 00:20:04;;;;;;;14.88;7.90;;;;;;;22.85;71.65;94722.94;5092884;28;20246;-82
2022/07/01 00:22:37;;;;;;;11.88;7.80;;;;;;;22.81;71.38;94729.88;5093133;28;20464;-82
2022/07/01 00:25:11;;;;;;;12.82;7.60;;;;;;;22.69;72.50;94726.91;5091983;28;20200;-83
2022/07/01 00:27:42;;;;;;;10.27;7.88;;;;;;;22.63;72.10;94730.69;5092729;28;20193;-82
2022/07/01 00:30:12;;;;;;;14.52;7.65;;;;;;;22.46;72.91;94727.78;5093372;28;20188;-82
2022/07/01 00:32:47;;;;;;;10.82;8.38;;;;;;;22.40;73.79;94729.75;5092861;28;20276;-84
2022/07/01 00:35:19;;;;;;;11.80;7.63;;;;;;;22.26;74.45;94720.16;5092322;28;20666;-85
2022/07/01 00:37:51;;;;;;;13.07;7.85;;;;;;;22.16;74.73;94709.75;5091641;28;20188;-85
2022/07/01 00:40:24;;;;;;;11.70;7.32;;;;;;;22.22;76.90;94727.91;5076805;28;20782;-82
2022/07/01 00:42:55;;;;;;;11.48;7.90;;;;;;;22.21;77.21;94731.63;5072003;28;20611;-82
2022/07/01 00:45:28;;;;;;;13.60;8.13;;;;;;;22.26;76.93;94733.41;5073143;28;20216;-83
2022/07/01 00:48:09;;;;;;;14.10;8.90;;;;;;;22.30;75.96;94731.78;5072382;28;20190;-82
2022/07/01 00:50:41;;;;;;;14.98;8.57;;;;;;;22.27;75.98;94732.34;5071835;28;20217;-82
2022/07/01 00:53:12;;;;;;;13.68;8.23;;;;;;;22.30;76.11;94731.78;5071989;28;20200;-84
2022/07/01 00:55:46;;;;;;;14.90;7.88;;;;;;;22.29;76.11;94728.34;5072600;28;20173;-84
2022/07/01 00:58:16;;;;;;;11.25;7.97;;;;;;;22.27;75.96;94732.34;5072016;28;20182;-83
2022/07/01 01:00:48;;;;;;;17.17;8.15;;;;;;;22.27;76.56;94733.13;5077775;28;20233;-83
2022/07/01 01:03:20;;;;;;;13.07;7.50;;;;;;;22.13;78.26;94732.28;5092922;28;20204;-83
2022/07/01 01:05:54;;;;;;;15.02;7.93;;;;;;;22.16;78.44;94731.72;5092424;28;20185;-83
2022/07/01 01:08:25;;;;;;;13.60;7.07;;;;;;;22.17;78.47;94733.28;5092538;28;20195;-83
2022/07/01 01:10:58;;;;;;;9.70;6.80;;;;;;;22.20;78.57;94737.22;5072996;28;20201;-84
2022/07/01 01:13:28;;;;;;;11.40;6.20;;;;;;;22.20;78.57;94737.22;5071992;28;20197;-83
2022/07/01 01:16:04;;;;;;;15.65;7.75;;;;;;;22.19;77.55;94736.44;5071782;28;20233;-84
2022/07/01 01:18:38;;;;;;;11.93;7.85;;;;;;;22.15;77.85;94737.28;5071875;28;20217;-84
2022/07/01 01:21:19;;;;;;;10.68;8.18;;;;;;;22.06;77.79;94742.44;5072263;28;20223;-84
2022/07/01 01:23:52;;;;;;;10.43;7.70;;;;;;;21.98;78.32;94725.38;5070996;28;20228;-84
2022/07/01 01:26:25;;;;;;;12.90;7.60;;;;;;;21.88;78.88;94732.63;5071689;28;20184;-87
2022/07/01 01:29:02;;;;;;;13.77;7.22;;;;;;;21.76;79.64;94722.44;5072460;28;20198;-89
2022/07/01 01:31:35;;;;;;;15.38;8.07;;;;;;;21.72;80.54;94731.25;5072133;28;20188;-88
2022/07/01 01:34:06;;;;;;;11.32;7.20;;;;;;;21.71;80.96;94729.66;5073045;28;20280;-87
2022/07/01 01:36:41;;;;;;;9.52;6.45;;;;;;;21.68;80.62;94738.19;5073541;28;20193;-88
2022/07/01 01:39:11;;;;;;;11.10;7.10;;;;;;;21.66;80.52;94743.75;5077663;28;20697;-87
2022/07/01 01:41:41;;;;;;;12.07;7.20;;;;;;;21.64;80.94;94734.53;5092436;28;20250;-85
2022/07/01 01:44:11;;;;;;;11.52;7.50;;;;;;;21.72;81.71;94741.84;5091854;28;20193;-87
2022/07/01 01:46:42;;;;;;;11.73;7.45;;;;;;;21.68;81.90;94743.47;5092811;28;20192;-86
2022/07/01 01:49:13;;;;;;;12.52;7.30;;;;;;;21.66;82.01;94745.63;5092386;28;20628;-85
2022/07/01 01:51:45;;;;;;;15.45;7.65;;;;;;;21.53;82.21;94727.81;5092455;28;20276;-86
2022/07/01 01:54:17;;;;;;;16.15;7.68;;;;;;;21.68;81.68;94751.41;5092460;28;20258;-86
2022/07/01 01:56:48;;;;;;;12.90;7.53;;;;;;;21.68;81.60;94752.19;5092307;28;20195;-85
2022/07/01 01:59:20;;;;;;;21.85;6.80;;;;;;;21.28;81.47;94747.41;5092390;28;20224;-85
2022/07/01 02:01:51;;;;;;;9.85;6.65;;;;;;;21.19;81.79;94741.94;5092077;28;20217;-86
2022/07/01 02:04:24;;;;;;;9.95;6.88;;;;;;;21.28;82.39;94745.56;5091751;28;20184;-85
2022/07/01 02:06:57;;;;;;;11.70;6.50;;;;;;;21.25;82.33;94742.69;5092270;28;20224;-87
2022/07/01 02:09:30;;;;;;;13.07;6.82;;;;;;;21.23;82.09;94744.81;5091902;28;20298;-86
2022/07/01 02:12:06;;;;;;;9.43;6.70;;;;;;;21.20;81.98;94748.03;5091488;28;20201;-83
2022/07/01 02:14:39;;;;;;;9.05;6.80;;;;;;;21.23;82.52;94745.63;5091668;28;20197;-84
2022/07/01 02:17:13;;;;;;;10.20;6.70;;;;;;;21.07;82.16;94749.44;5092001;28;20549;-88
2022/07/01 02:19:43;;;;;;;20.75;7.28;;;;;;;20.99;82.72;94754.56;5093024;28;20185;-87
2022/07/01 02:22:17;;;;;;;11.48;7.43;;;;;;;20.95;83.36;94757.00;5092046;28;20189;-87
2022/07/01 02:24:48;;;;;;;13.43;7.00;;;;;;;21.01;84.21;94755.09;5091799;28;20196;-87
2022/07/01 02:27:18;;;;;;;11.45;7.45;;;;;;;21.05;84.85;94758.72;5091670;28;20191;-87
2022/07/01 02:29:50;;;;;;;12.35;7.82;;;;;;;21.11;84.83;94761.06;5091039;28;20623;-86
2022/07/01 02:32:21;;;;;;;14.55;7.57;;;;;;;21.15;84.94;94772.69;5092529;28;20184;-87
2022/07/01 02:34:51;;;;;;;11.32;7.35;;;;;;;21.17;84.80;94770.53;5091880;28;20193;-87
2022/07/01 02:37:25;;;;;;;11.98;7.50;;;;;;;21.15;84.43;94772.69;5092751;28;20196;-86
2022/07/01 02:39:57;;;;;;;13.65;7.25;;;;;;;21.17;84.69;94775.03;5092224;28;20647;-87
2022/07/01 02:42:34;;;;;;;12.15;7.47;;;;;;;21.06;84.46;94757.66;5092573;28;20180;-86
2022/07/01 02:45:07;;;;;;;9.43;6.97;;;;;;;21.05;83.53;94764.81;5092003;28;20184;-87
2022/07/01 02:47:38;;;;;;;10.98;6.80;;;;;;;21.03;84.13;94780.16;5091131;28;20188;-86
2022/07/01 02:50:10;;;;;;;17.52;6.97;;;;;;;20.98;84.73;94772.25;5091789;28;20663;-87
2022/07/01 02:52:45;;;;;;;9.93;6.95;;;;;;;21.05;84.72;94788.59;5091460;28;20742;-87
2022/07/01 02:55:18;;;;;;;13.55;7.57;;;;;;;21.09;84.59;94784.38;5091610;28;20192;-87
2022/07/01 02:57:49;;;;;;;10.55;7.25;;;;;;;21.04;84.26;94781.72;5092466;28;20231;-86
2022/07/01 03:00:20;;;;;;;10.25;7.65;;;;;;;21.04;84.81;94787.00;5091333;28;20236;-86
2022/07/01 03:02:50;;;;;;;14.88;7.28;;;;;;;20.99;86.29;94794.19;5091880;28;20277;-87
2022/07/01 03:05:22;;;;;;;15.10;7.25;;;;;;;21.03;86.72;94792.59;5091394;28;20200;-87
2022/07/01 03:07:55;;;;;;;10.93;7.32;;;;;;;21.04;86.69;94794.94;5091309;28;20204;-87
2022/07/01 03:10:27;;;;;;;13.38;8.00;;;;;;;20.97;86.52;94799.00;5075352;28;20703;-87
2022/07/01 03:12:59;;;;;;;11.32;7.32;;;;;;;20.91;86.89;94793.75;5070988;28;20184;-86
2022/07/01 03:15:35;;;;;;;16.00;7.50;;;;;;;20.94;87.09;94797.69;5070699;28;20192;-87
2022/07/01 03:18:07;;;;;;;18.65;7.50;;;;;;;20.89;86.43;94805.69;5071074;28;20189;-86
2022/07/01 03:20:39;;;;;;;11.10;7.68;;;;;;;20.66;86.74;94801.13;5076459;28;20308;-90
2022/07/01 03:23:10;;;;;;;14.20;7.32;;;;;;;20.33;88.68;94787.63;5078410;28;20204;-89
2022/07/01 03:25:43;;;;;;;18.40;7.45;;;;;;;20.32;89.60;94807.16;5073885;28;20196;-89
2022/07/01 03:28:15;;;;;;;17.95;8.10;;;;;;;20.10;90.42;94792.75;5072995;28;20259;-89
2022/07/01 03:30:46;;;;;;;16.02;7.90;;;;;;;20.23;91.15;94803.50;5072297;28;20186;-89
2022/07/01 03:33:19;;;;;;;13.68;7.75;;;;;;;20.36;90.98;94813.47;5086298;28;20283;-90
2022/07/01 03:35:50;;;;;;;12.52;8.10;;;;;;;20.46;90.62;94806.56;5093091;28;20177;-89
2022/07/01 03:38:21;;;;;;;14.15;7.45;;;;;;;20.42;90.75;94794.97;5093526;28;20250;-88
2022/07/01 03:40:51;;;;;;;13.15;7.38;;;;;;;20.65;90.57;94812.75;5090729;28;20271;-89
2022/07/01 03:43:21;;;;;;;17.20;7.82;;;;;;;20.75;90.78;94810.03;5091311;28;20197;-86
2022/07/01 03:45:53;;;;;;;18.40;7.75;;;;;;;20.72;89.48;94797.38;5092858;28;20193;-86
2022/07/01 03:48:25;;;;;;;13.45;7.75;;;;;;;20.71;88.06;94809.00;5095129;28;20647;-85
2022/07/01 03:51:01;;;;;;;19.48;8.65;;;;;;;20.76;88.33;94811.59;5096631;28;20200;-87
2022/07/01 03:56:21;;;;;;;17.08;8.23;;;;;;;20.85;88.77;94820.50;5095797;28;20287;-88
2022/07/01 03:58:49;;;;;;;11.57;7.63;;;;;;;20.79;88.69;94809.19;5098266;28;20201;-87
2022/07/01 04:01:18;;;;;;;14.23;8.00;;;;;;;20.85;87.91;94816.00;5095595;28;20212;-88
2022/07/01 04:03:49;;;;;;;12.88;7.85;;;;;;;20.89;87.55;94806.44;5095824;28;20250;-88
2022/07/01 04:06:20;;;;;;;17.85;7.93;;;;;;;20.94;86.63;94805.63;5095709;28;20715;-87
2022/07/01 04:08:51;;;;;;;12.77;7.53;;;;;;;20.99;85.98;94812.69;5098281;28;20216;-91
2022/07/01 04:11:20;;;;;;;16.42;7.97;;;;;;;21.05;84.62;94814.25;5097511;28;20575;-89
2022/07/01 04:13:52;;;;;;;17.17;7.70;;;;;;;21.11;84.93;94834.31;5096918;28;20197;-89
2022/07/01 04:16:25;;;;;;;10.30;8.02;;;;;;;21.18;84.96;94830.25;5094894;28;20214;-87
2022/07/01 04:19:00;;;;;;;16.27;8.27;;;;;;;21.22;85.62;94826.00;5095635;28;20201;-87
2022/07/01 04:24:18;;;;;;;18.05;7.80;;;;;;;21.19;86.88;94815.97;5094414;28;20236;-87
2022/07/01 04:26:47;;;;;;;16.65;7.63;;;;;;;21.22;86.50;94833.13;5098245;28;20247;-87
2022/07/01 04:29:18;;;;;;;17.40;8.18;;;;;;;21.18;86.96;94822.31;5094442;28;20189;-88
2022/07/01 04:31:49;;;;;;;15.57;8.02;;;;;;;21.28;86.99;94824.88;5094396;28;20184;-87
2022/07/01 04:34:24;;;;;;;12.13;7.68;;;;;;;21.33;85.31;94813.44;5095540;28;20191;-85
2022/07/01 04:36:58;;;;;;;9.93;7.32;;;;;;;21.44;85.77;94831.56;5093378;28;20181;-82
2022/07/01 04:39:31;;;;;;;11.15;7.40;;;;;;;21.48;85.75;94832.59;5086806;28;20201;-83
2022/07/01 04:42:00;;;;;;;15.60;8.00;;;;;;;21.57;85.04;94824.84;5089716;28;20240;-84
2022/07/01 04:44:31;;;;;;;18.48;7.93;;;;;;;21.69;83.67;94832.38;5093583;28;20216;-82
2022/07/01 04:47:08;;;;;;;11.43;7.28;;;;;;;21.61;83.45;94825.84;5091717;28;20228;-79
2022/07/01 04:49:42;;;;;;;14.32;7.15;;;;;;;21.66;85.13;94839.03;5091778;28;20198;-79
2022/07/01 04:52:14;;;;;;;10.25;7.38;;;;;;;21.66;85.48;94832.94;5092093;28;20184;-79
2022/07/01 04:54:46;;;;;;;16.20;6.93;;;;;;;21.66;85.50;94833.72;5091665;28;20235;-80
2022/07/01 04:57:18;;;;;;;16.75;7.18;;;;;;;21.70;84.35;94829.44;5081588;28;20201;-85
2022/07/01 04:59:47;;;;;;;12.15;6.75;;;;;;;21.69;84.18;94827.88;5072494;28;20236;-85
2022/07/01 05:02:21;;;;;;;12.77;7.10;;;;;;;21.75;83.02;94825.94;5072810;28;20304;-84
2022/07/01 05:04:51;;;;;;;12.13;7.03;;;;;;;21.73;83.71;94828.09;5072085;28;20213;-85
2022/07/01 05:07:33;;;;;;;10.45;7.55;;;;;;;21.79;83.27;94829.63;5072574;28;20198;-85
2022/07/01 05:10:09;;;;;;;10.48;7.38;;;;;;;21.81;82.76;94825.63;5072211;28;20228;-87
2022/07/01 05:12:49;;;;;;;15.85;7.97;;;;;;;21.85;82.55;94831.09;5072596;28;20185;-87
2022/07/01 05:15:18;;;;;;;12.18;7.82;;;;;;;21.87;82.49;94828.97;5073008;28;20224;-85
2022/07/01 05:23:24;;;;;;;16.45;7.53;;;;;;;22.03;81.36;94836.47;5072037;28;20227;-85
2022/07/01 05:26:04;;;;;;;11.13;7.25;;;;;;;22.07;81.86;94834.06;5071283;28;20276;-84
2022/07/01 05:28:43;;;;;;;12.27;8.18;;;;;;;22.10;81.83;94830.03;5088922;28;20648;-86
2022/07/01 05:31:17;;;;;;;14.02;7.15;;;;;;;22.12;81.92;94831.34;5092786;28;20278;-88
2022/07/01 05:33:49;;;;;;;11.45;7.65;;;;;;;22.14;82.40;94833.69;5092530;28;20203;-85
2022/07/01 05:36:19;;;;;;;19.50;7.45;;;;;;;22.17;81.60;94831.25;5094350;28;20264;-85
2022/07/01 05:38:49;;;;;;;14.38;7.07;;;;;;;22.17;81.25;94835.75;5092495;28;20201;-84
2022/07/01 05:41:22;;;;;;;13.48;7.40;;;;;;;22.20;80.00;94837.84;5092494;28;20216;-84
2022/07/01 05:43:53;;;;;;;10.57;7.85;;;;;;;22.28;79.19;94835.34;5091073;28;20685;-87
2022/07/01 05:46:23;;;;;;;11.73;7.45;;;;;;;22.28;79.12;94832.69;5091996;28;20350;-86
2022/07/01 05:48:53;;;;;;;17.33;7.57;;;;;;;22.35;79.34;94833.13;5092143;28;20270;-86
2022/07/01 05:51:20;;;;;;;18.48;7.78;;;;;;;22.33;79.66;94837.94;5092427;28;20289;-84
2022/07/01 05:53:49;;;;;;;15.88;7.43;;;;;;;22.36;79.81;94833.91;5091281;28;20253;-84
2022/07/01 05:56:20;;;;;;;9.90;7.13;;;;;;;22.40;80.18;94834.91;5093253;28;20222;-85
2022/07/01 05:58:51;;;;;;;14.48;8.10;;;;;;;22.43;79.78;94835.13;5092370;28;20177;-84
2022/07/01 06:01:20;;;;;;;10.20;7.07;;;;;;;22.52;78.59;94840.56;5091783;28;20793;-85
2022/07/01 06:03:49;;;;;;;11.95;7.40;;;;;;;22.57;78.65;94835.97;5092354;28;20279;-84
2022/07/01 06:06:20;;;;;;;14.82;7.70;;;;;;;22.62;79.04;94840.44;5092241;28;20193;-84
2022/07/01 06:08:49;;;;;;;14.50;7.50;;;;;;;22.71;79.92;94838.72;5093224;28;20185;-85
2022/07/01 06:11:20;;;;;;;10.52;7.20;;;;;;;22.74;79.24;94838.13;5091890;28;20291;-85
2022/07/01 06:13:48;;;;;;;16.48;7.30;;;;;;;22.81;78.45;94837.75;5091479;28;20655;-86
2022/07/01 06:16:18;;;;;;;13.48;7.45;;;;;;;22.79;78.68;94840.72;5091793;28;20204;-84
2022/07/01 06:18:48;;;;;;;15.20;9.35;;;;;;;22.86;78.99;94835.81;5091157;28;20193;-85
2022/07/01 06:21:20;;;;;;;15.77;8.35;;;;;;;22.92;78.46;94847.13;5091375;28;20278;-85
2022/07/01 06:23:51;;;;;;;18.60;8.10;;;;;;;22.91;78.67;94846.34;5091393;28;20192;-83
2022/07/01 06:26:24;;;;;;;12.60;8.00;;;;;;;22.91;78.87;94842.91;5093329;28;20188;-87
2022/07/01 06:28:54;;;;;;;16.95;7.80;;;;;;;22.88;78.71;94849.59;5092415;28;20196;-85
2022/07/01 06:31:29;;;;;;;14.50;7.50;;;;;;;22.90;77.85;94831.53;5093318;28;20287;-87
2022/07/01 06:34:01;;;;;;;16.08;7.50;;;;;;;23.09;78.04;94847.38;5091334;28;20181;-87
2022/07/01 06:36:34;;;;;;;16.08;8.43;;;;;;;23.18;77.87;94843.75;5091420;28;20220;-88
2022/07/01 06:39:08;;;;;;;12.90;8.07;;;;;;;23.22;77.19;94841.31;5087914;28;20213;-87
2022/07/01 06:41:39;;;;;;;17.88;8.10;;;;;;;23.27;77.04;94845.75;5070541;28;20217;-86
2022/07/01 06:44:16;;;;;;;14.30;7.53;;;;;;;23.36;76.24;94842.13;5071280;28;20251;-85
2022/07/01 06:46:49;;;;;;;14.48;8.02;;;;;;;23.39;76.75;94838.13;5071526;28;20192;-86
2022/07/01 06:49:21;;;;;;;14.20;7.50;;;;;;;23.47;75.55;94835.59;5071885;28;20197;-85
2022/07/01 06:51:51;;;;;;;14.63;7.53;;;;;;;23.52;75.30;94834.72;5071200;28;20269;-87
2022/07/01 06:54:22;;;;;;;20.00;8.38;;;;;;;23.64;74.89;94838.44;5070998;28;20259;-86
2022/07/01 06:56:56;;;;;;;20.63;8.80;;;;;;;23.68;73.97;94834.13;5071798;28;20185;-87
2022/07/01 06:59:32;;;;;;;19.95;8.02;;;;;;;23.71;72.82;94838.06;5070596;28;20287;-77
2022/07/01 07:02:12;;;;;;;21.83;8.77;;;;;;;23.69;72.83;94837.56;5070322;28;20209;-76
2022/07/01 07:04:48;;;;;;;14.82;8.25;;;;;;;23.70;73.25;94829.31;5070241;28;20274;-78
2022/07/01 07:07:21;;;;;;;11.43;8.27;;;;;;;23.89;74.31;94839.81;5070261;28;20239;-78
2022/07/01 07:09:55;;;;;;;13.38;7.50;;;;;;;24.01;73.23;94839.31;5070422;28;20205;-82
2022/07/01 07:12:29;;;;;;;15.38;8.30;;;;;;;24.08;72.73;94847.66;5070120;28;20253;-79
2022/07/01 07:15:18;;;;;;;19.85;8.13;;;;;;;24.20;73.54;94846.09;5070720;28;20188;-76
2022/07/01 07:18:27;;;;;;;14.27;7.70;;;;;;;24.31;72.51;94844.00;5069953;28;20235;-76
2022/07/01 07:21:07;;;;;;;11.07;7.55;;;;;;;24.40;71.81;94846.75;5070973;28;20648;-77
2022/07/01 07:23:42;;;;;;;13.90;7.95;;;;;;;24.48;71.42;94852.13;5073745;28;20181;-77
2022/07/01 07:26:18;;;;;;;14.35;8.45;;;;;;;24.54;70.17;94847.50;5074155;28;20181;-76
2022/07/01 07:28:50;;;;;;;13.25;8.05;;;;;;;24.65;69.82;94846.97;5073843;28;20197;-76
2022/07/01 07:31:20;;;;;;;13.95;7.75;;;;;;;24.68;68.47;94853.53;5074184;28;20193;-77
2022/07/01 07:33:51;;;;;;;19.80;8.05;;;;;;;24.70;67.85;94846.06;5073444;28;20193;-76
2022/07/01 07:36:28;;;;;;;16.25;8.50;;;;;;;24.77;67.40;94841.09;5073411;28;20193;-76
2022/07/01 07:39:14;;;;;;;15.38;7.65;;;;;;;24.85;67.44;94850.28;5074237;28;20197;-77
2022/07/01 07:41:49;;;;;;;18.92;8.20;;;;;;;24.91;67.85;94843.72;5073585;28;20217;-77
2022/07/01 07:44:23;;;;;;;18.33;8.25;;;;;;;24.99;67.92;94843.03;5073860;28;20193;-77
2022/07/01 07:46:51;;;;;;;14.85;7.90;;;;;;;25.03;66.22;94841.31;5073649;28;20178;-77
2022/07/01 07:49:22;;;;;;;12.13;8.30;;;;;;;25.10;66.51;94845.13;5073500;28;20205;-77
2022/07/01 07:51:51;;;;;;;13.13;7.90;;;;;;;25.17;65.59;94842.03;5073225;28;20192;-77
2022/07/01 07:54:21;;;;;;;13.00;8.32;;;;;;;25.19;63.80;94843.31;5073629;28;20284;-76
2022/07/01 07:56:53;;;;;;;17.50;9.38;;;;;;;25.25;63.17;94843.97;5072905;28;20197;-77
2022/07/01 07:59:36;;;;;;;11.90;7.90;;;;;;;25.22;63.04;94841.91;5073583;28;20780;-78
2022/07/01 08:02:14;;;;;;;19.50;7.70;;;;;;;25.20;63.00;94838.75;5073440;28;20229;-78
2022/07/01 08:04:49;;;;;;;13.98;8.45;;;;;;;25.30;62.44;94841.97;5073504;28;20185;-77
2022/07/01 08:07:20;;;;;;;13.50;7.78;;;;;;;25.37;63.35;94838.84;5073604;28;20533;-77
2022/07/01 08:09:50;;;;;;;17.05;7.57;;;;;;;25.47;63.25;94832.47;5073345;28;20652;-77
2022/07/01 08:18:36;;;;;;;12.85;7.07;;;;;;;25.48;62.88;94808.25;5050280;23;20323;-88
2022/07/01 08:21:15;;;;;;;18.20;8.02;;;;;;;25.72;63.99;94819.28;4978764;28;20193;-78
2022/07/01 08:23:48;;;;;;;15.25;7.50;;;;;;;25.80;63.79;94815.09;4973978;28;20220;-78
2022/07/01 08:26:20;;;;;;;10.43;7.05;;;;;;;25.91;63.51;94813.72;4974353;28;20260;-77
2022/07/01 08:28:51;;;;;;;22.13;8.20;;;;;;;26.04;62.40;94807.47;4974464;28;20212;-78
2022/07/01 08:31:23;;;;;;;16.15;7.35;;;;;;;26.14;64.10;94804.53;4973851;28;20193;-76
2022/07/01 08:34:02;;;;;;;14.93;6.47;;;;;;;26.28;66.48;94812.41;4973377;28;20207;-77
2022/07/01 08:36:34;;;;;;;18.92;7.30;;;;;;;26.31;64.07;94798.44;4973448;28;20702;-78
2022/07/01 08:39:14;;;;;;;11.30;7.07;;;;;;;26.46;61.08;94812.06;4974100;28;20215;-77
2022/07/01 08:41:45;;;;;;;12.82;6.70;;;;;;;26.48;59.57;94806.44;4973869;28;20201;-76
2022/07/01 08:44:20;;;;;;;14.60;6.57;;;;;;;26.58;61.09;94813.34;4973999;28;20201;-83
2022/07/01 08:46:52;;;;;;;13.93;6.05;;;;;;;26.61;62.05;94805.50;4975249;28;20203;-77
2022/07/01 08:49:26;;;;;;;12.48;5.97;;;;;;;26.79;61.92;94812.41;4976340;28;20193;-80
2022/07/01 08:51:58;;;;;;;14.30;6.60;;;;;;;26.87;59.60;94816.94;4974195;28;20203;-82
2022/07/01 08:54:34;;;;;;;11.55;6.47;;;;;;;26.94;58.66;94816.47;4974231;28;20204;-82
2022/07/01 08:57:08;;;;;;;11.70;6.30;;;;;;;27.04;58.94;94816.94;4974407;28;20256;-81
2022/07/01 08:59:43;;;;;;;8.73;6.47;;;;;;;27.13;57.88;94821.47;4973801;28;20283;-81
2022/07/01 09:02:20;;;;;;;8.13;6.60;;;;;;;27.19;56.77;94807.63;4974263;28;20282;-82
2022/07/01 09:05:10;;;;;;;13.68;6.05;;;;;;;27.30;55.51;94814.19;4974491;28;20188;-81
2022/07/01 09:07:44;;;;;;;10.93;6.43;;;;;;;27.29;53.60;94817.97;4974080;28;20189;-81
2022/07/01 09:10:20;;;;;;;13.13;6.40;;;;;;;27.29;53.84;94814.53;4973864;28;20213;-81
2022/07/01 09:13:04;;;;;;;14.15;6.38;;;;;;;27.37;53.20;94817.16;4973738;28;20193;-82
2022/07/01 09:15:41;;;;;;;9.52;6.40;;;;;;;27.49;52.53;94813.84;4973799;28;20196;-82
2022/07/01 09:18:20;;;;;;;9.15;6.18;;;;;;;27.58;53.76;94812.72;4973564;28;20188;-81
2022/07/01 09:20:53;;;;;;;11.13;5.50;;;;;;;27.71;54.53;94810.13;4973863;28;20275;-81
2022/07/01 09:23:33;;;;;;;18.00;6.88;;;;;;;27.88;54.54;94807.41;4973203;28;20295;-81
2022/07/01 09:26:08;;;;;;;14.23;6.63;;;;;;;27.99;53.19;94816.63;4973594;28;20196;-81
2022/07/01 09:28:44;;;;;;;9.77;5.95;;;;;;;28.11;53.11;94812.16;4973164;28;20192;-82
2022/07/01 09:31:19;;;;;;;13.00;6.47;;;;;;;28.17;48.67;94808.19;4973634;28;20192;-83
2022/07/01 09:34:08;;;;;;;8.90;6.35;;;;;;;28.32;50.90;94806.03;4973189;28;20220;-81
2022/07/01 09:36:57;;;;;;;7.45;5.53;;;;;;;28.36;49.90;94805.09;4972935;28;20639;-81
2022/07/01 09:39:32;;;;;;;10.82;5.93;;;;;;;28.48;48.43;94805.16;4972611;28;20659;-82
2022/07/01 09:42:05;;;;;;;8.35;5.60;;;;;;;28.61;48.62;94800.63;4972973;28;20197;-81
2022/07/01 09:44:54;;;;;;;12.82;6.20;;;;;;;28.72;48.58;94803.72;4972459;28;20200;-82
2022/07/01 09:47:32;;;;;;;10.45;5.05;;;;;;;28.81;48.23;94802.53;4972784;28;20200;-81
2022/07/01 09:50:07;;;;;;;9.85;5.68;;;;;;;28.91;47.24;94802.13;4973220;28;20370;-82
2022/07/01 09:52:44;;;;;;;12.15;6.40;;;;;;;29.03;45.05;94798.72;4972704;28;20199;-81
2022/07/01 09:55:18;;;;;;;7.30;5.75;;;;;;;29.10;44.16;94794.38;4972891;28;20185;-82
2022/07/01 09:57:49;;;;;;;13.93;6.13;;;;;;;29.21;42.92;94792.81;4972614;28;20197;-81
2022/07/01 10:00:21;;;;;;;7.88;5.50;;;;;;;29.31;43.07;94786.31;4972749;28;20216;-82
2022/07/01 10:02:53;;;;;;;12.57;5.90;;;;;;;29.44;42.91;94787.88;4972729;28;20225;-81
2022/07/01 10:05:26;;;;;;;9.82;5.93;;;;;;;29.46;42.20;94784.88;4972877;28;20292;-82
2022/07/01 10:08:12;;;;;;;7.43;5.15;;;;;;;29.55;43.29;94780.19;4972128;28;20196;-81
2022/07/01 10:10:51;;;;;;;8.95;5.25;;;;;;;29.70;43.36;94784.88;4972922;28;20300;-81
2022/07/01 10:13:31;;;;;;;7.35;4.63;;;;;;;29.83;37.37;94799.88;4972445;28;20184;-81
2022/07/01 10:16:07;;;;;;;9.80;4.75;;;;;;;30.00;34.85;94790.81;4972717;28;20287;-81
2022/07/01 10:18:46;;;;;;;10.68;4.90;;;;;;;30.11;37.42;94786.56;4972253;28;20729;-83
2022/07/01 10:21:34;;;;;;;11.35;5.20;;;;;;;30.34;37.10;94784.94;4972118;28;20216;-82
2022/07/01 10:24:23;;;;;;;5.25;4.47;;;;;;;30.56;37.39;94779.13;4972281;28;20282;-82
2022/07/01 10:26:53;;;;;;;7.78;4.53;;;;;;;30.77;35.57;94785.06;4972111;28;20197;-82
2022/07/01 10:29:43;;;;;;;9.80;5.07;;;;;;;30.99;35.88;94780.28;4972065;28;20211;-82
2022/07/01 10:32:33;;;;;;;6.95;5.10;;;;;;;31.01;33.62;94772.66;4972243;28;20632;-82
2022/07/01 10:35:14;;;;;;;7.53;4.82;;;;;;;31.06;34.52;94770.50;4972146;28;20200;-80
2022/07/01 10:38:03;;;;;;;11.88;5.03;;;;;;;31.11;31.72;94770.25;4971859;28;20197;-80
2022/07/01 10:40:49;;;;;;;8.43;5.10;;;;;;;31.36;34.42;94768.22;4972160;28;20204;-80
2022/07/01 10:43:40;;;;;;;5.50;4.80;;;;;;;31.58;34.80;94762.25;4972225;28;20275;-81
2022/07/01 10:46:36;;;;;;;8.00;4.60;;;;;;;31.68;30.94;94760.94;4972359;28;20211;-81
2022/07/01 10:49:13;;;;;;;7.95;4.60;;;;;;;31.85;29.32;94757.88;4972146;28;20181;-81
2022/07/01 10:51:50;;;;;;;7.18;4.53;;;;;;;32.03;31.56;94754.47;4971458;28;20201;-82
2022/07/01 10:54:53;;;;;;;8.52;7.00;;;;;;;32.15;31.54;94758.22;4972158;28;20184;-80
2022/07/01 10:57:35;;;;;;;5.57;4.72;;;;;;;32.30;30.15;94754.66;4912191;29;20217;-82
2022/07/01 11:00:34;;;;;;;7.75;5.32;;;;;;;32.50;29.23;94758.94;4911794;29;20273;-82
2022/07/01 11:03:20;;;;;;;5.43;4.90;;;;;;;32.57;29.11;94761.81;4958569;28;20810;-82
2022/07/01 11:05:59;;;;;;;9.35;4.95;;;;;;;32.70;28.37;94763.22;4974792;28;20259;-82
2022/07/01 11:08:46;;;;;;;6.47;5.03;;;;;;;32.81;29.61;94760.75;4977190;28;20251;-81
2022/07/01 11:11:23;;;;;;;5.45;4.95;;;;;;;32.78;28.92;94759.53;4957031;29;20265;-82
2022/07/01 11:13:59;;;;;;;8.88;5.07;;;;;;;33.08;29.52;94755.13;4955490;29;20521;-82
2022/07/01 11:16:33;;;;;;;9.65;5.70;;;;;;;33.29;27.30;94764.72;4953299;28;20209;-81
2022/07/01 11:19:05;;;;;;;11.35;5.80;;;;;;;33.22;27.49;94756.53;4951833;28;20247;-81
2022/07/01 11:21:36;;;;;;;9.93;5.15;;;;;;;33.53;29.31;94756.28;4951934;28;20194;-82
2022/07/01 11:24:13;;;;;;;10.32;5.70;;;;;;;33.67;28.62;94748.44;4952496;28;20248;-81
2022/07/01 11:26:46;;;;;;;6.72;5.20;;;;;;;33.96;29.07;94753.13;4952526;28;20265;-81
2022/07/01 11:29:27;;;;;;;12.00;5.20;;;;;;;34.19;28.79;94751.16;4951830;28;20207;-82
2022/07/01 11:31:57;;;;;;;12.20;5.35;;;;;;;34.44;28.02;94751.47;4952080;28;20224;-81
2022/07/01 11:34:30;;;;;;;5.32;4.82;;;;;;;34.58;27.53;94743.56;4952145;28;20233;-81
2022/07/01 11:39:47;;;;;;;8.68;4.70;;;;;;;34.69;27.35;94746.44;4961469;28;20722;-82
2022/07/01 11:42:22;;;;;;;7.97;5.00;;;;;;;34.64;26.87;94744.81;4971544;28;20225;-82
2022/07/01 11:44:59;;;;;;;11.15;5.32;;;;;;;34.76;26.35;94743.78;4971210;28;20205;-78
2022/07/01 11:47:30;;;;;;;12.48;5.55;;;;;;;34.68;28.35;94742.16;4970248;28;20189;-78
2022/07/01 11:50:07;;;;;;;5.85;4.50;;;;;;;34.56;28.24;94740.44;4965000;28;20205;-78
2022/07/01 11:52:43;;;;;;;8.90;4.82;;;;;;;34.67;27.49;94738.66;4969384;28;20192;-79
2022/07/01 11:55:28;;;;;;;8.23;4.53;;;;;;;34.89;26.49;94728.88;4970239;28;20251;-79
2022/07/01 11:58:05;;;;;;;7.63;4.68;;;;;;;35.10;26.81;94731.81;4967491;28;20208;-78
2022/07/01 12:00:46;;;;;;;8.85;4.50;;;;;;;35.33;26.13;94728.19;4966322;28;20742;-79
2022/07/01 12:03:33;;;;;;;8.45;4.70;;;;;;;35.25;25.42;94732.72;4965947;28;20234;-78
2022/07/01 12:06:09;;;;;;;11.10;4.70;;;;;;;35.41;25.96;94724.38;4965957;28;20283;-79
2022/07/01 12:08:45;;;;;;;4.93;4.43;;;;;;;35.62;25.48;94740.78;4969540;28;20302;-78
2022/07/01 12:11:24;;;;;;;8.30;4.30;;;;;;;35.82;25.30;94726.63;4967619;28;20205;-79
2022/07/01 12:14:04;;;;;;;6.95;4.80;;;;;;;35.70;25.55;94726.19;4969519;28;20302;-78
2022/07/01 12:16:45;;;;;;;7.28;4.35;;;;;;;35.57;25.04;94720.28;4969725;28;20263;-79
2022/07/01 12:19:25;;;;;;;11.93;4.93;;;;;;;35.47;24.65;94722.88;4969372;28;20322;-79
2022/07/01 12:22:05;;;;;;;7.13;5.20;;;;;;;35.14;25.82;94721.81;4968756;28;20208;-79